Terminal Aerodrome Forecast
Issued by NWS

Home | Current Version | Previous Version | Text Only | Print | Product List | Glossary On
Versions: 1 2 3 4 5 6 7 8 9 10 11 12 13 14 15 16 17 18 19 20 21
000
FTUS41 KCAR 020534
TAFPQI
TAF
KPQI 020534Z 0206/0306 18008KT P6SM VCSH OVC009
      TEMPO 0206/0208 6SM -SHRA
     FM020800 20008KT P6SM OVC015
     FM021000 22010KT P6SM OVC025
     FM021400 22012G22KT P6SM BKN040
     FM030000 24008KT P6SM BKN050
      AMD LTD TO CLD VIS AND WIND=

USA.gov is the U.S. government's official web portal to all federal, state and local government web resources and services.